Time;durP1;ratioP1;P1;durP2;ratioP2;P2;SDS_P1;SDS_P2;PMS_P1;PMS_P2;Temp;Humidity;BMP_temperature;BMP_pressure;BME280_temperature;BME280_humidity;BME280_pressure;Samples;Min_cycle;Max_cycle;Signal;HPM_P1;HPM_P2
2021/04/01 00:01:50;;;;;;;;;;;11.70;72.90;;;10.66;54.32;96061.41;10435192;28;1622;-86
2021/04/01 00:06:52;;;;;;;;;;;11.70;73.40;;;10.69;54.00;96052.03;10416594;28;1284;-87
2021/04/01 00:11:53;;;;;;;;;;;11.70;73.40;;;10.64;54.00;96050.13;10400829;28;1887;-85
2021/04/01 00:16:55;;;;;;;;;;;11.70;73.50;;;10.56;54.61;96045.28;10389814;28;1819;-87
2021/04/01 00:21:57;;;;;;;;;;;11.60;73.50;;;10.72;53.91;96041.53;10380288;28;1838;-86
2021/04/01 00:27:00;;;;;;;;;;;11.70;73.80;;;10.60;54.49;96038.28;10382803;28;1701;-87
2021/04/01 00:32:06;;;;;;;;;;;11.70;73.70;;;10.58;54.47;96039.63;10398875;28;2059;-85
2021/04/01 00:37:08;;;;;;;;;;;11.60;73.70;;;10.54;54.65;96036.66;10394055;28;1842;-87
2021/04/01 00:42:10;;;;;;;;;;;11.60;73.90;;;10.56;54.68;96034.53;10388927;28;1941;-87
2021/04/01 00:47:12;;;;;;;;;;;11.60;74.10;;;10.45;55.12;96024.81;10386634;28;2027;-85
2021/04/01 00:52:14;;;;;;;;;;;11.50;74.20;;;10.42;55.39;96025.34;10408726;28;2036;-85
2021/04/01 00:57:16;;;;;;;;;;;11.50;74.50;;;10.40;55.22;96020.25;10402876;28;2131;-86
2021/04/01 01:02:18;;;;;;;;;;;11.50;74.60;;;10.50;54.97;96027.53;10400082;28;2198;-85
2021/04/01 01:07:20;;;;;;;;;;;11.50;74.70;;;10.40;55.05;96016.75;10377970;28;2489;-87
2021/04/01 01:12:22;;;;;;;;;;;11.50;74.80;;;10.40;55.40;96017.56;10408419;28;1910;-84
2021/04/01 01:17:24;;;;;;;;;;;11.40;74.60;;;10.37;55.49;96017.28;10386675;28;1231;-86
2021/04/01 01:22:26;;;;;;;;;;;11.40;74.90;;;10.35;55.27;96008.69;10401934;28;2123;-87
2021/04/01 01:27:28;;;;;;;;;;;11.40;74.90;;;10.22;55.88;96015.34;10377371;28;1980;-86
2021/04/01 01:32:36;;;;;;;;;;;11.30;75.00;;;10.26;55.59;96011.09;10395671;28;1973;-87
2021/04/01 01:37:38;;;;;;;;;;;11.30;75.10;;;10.31;55.34;96007.59;10401716;28;1769;-87
2021/04/01 01:42:40;;;;;;;;;;;11.30;75.00;;;10.23;55.23;96000.84;10413283;28;2269;-86
2021/04/01 01:47:43;;;;;;;;;;;11.30;75.00;;;10.23;55.38;95992.78;10394494;28;2078;-85
2021/04/01 01:52:45;;;;;;;;;;;11.30;75.00;;;10.27;55.33;95997.38;10394747;28;1972;-87
2021/04/01 01:57:47;;;;;;;;;;;11.30;75.20;;;10.29;55.54;95992.53;10384095;28;1595;-88
2021/04/01 02:02:50;;;;;;;;;;;11.30;75.30;;;10.06;56.11;95984.16;10412130;28;1952;-89
2021/04/01 02:07:52;;;;;;;;;;;11.20;75.30;;;10.01;56.30;95987.63;10410081;28;1874;-87
2021/04/01 02:12:54;;;;;;;;;;;11.00;75.70;;;9.93;56.42;95983.56;10412710;28;2125;-87
2021/04/01 02:17:55;;;;;;;;;;;11.00;75.90;;;9.89;56.50;95995.09;10391288;28;2142;-87
2021/04/01 02:22:57;;;;;;;;;;;11.00;75.90;;;9.93;56.37;95990.84;10390517;28;2014;-87
2021/04/01 02:27:59;;;;;;;;;;;11.00;75.90;;;9.84;56.79;95992.38;10389532;28;1903;-86
2021/04/01 02:33:04;;;;;;;;;;;11.00;75.90;;;9.91;56.36;95982.22;10376944;28;1967;-86
2021/04/01 02:38:06;;;;;;;;;;;10.90;75.90;;;9.90;56.33;95973.34;10379983;28;2007;-87
2021/04/01 02:43:08;;;;;;;;;;;10.90;75.90;;;9.88;55.87;95972.81;10367827;28;2704;-86
2021/04/01 02:48:10;;;;;;;;;;;10.90;75.80;;;9.80;56.43;95975.19;10394659;28;2102;-87
2021/04/01 02:53:12;;;;;;;;;;;10.90;76.10;;;9.61;57.11;95967.63;10396744;28;2247;-84
2021/04/01 02:58:13;;;;;;;;;;;10.80;76.20;;;9.58;57.48;95973.50;10381226;28;1559;-87
2021/04/01 03:03:18;;;;;;;;;;;10.70;76.70;;;9.55;57.54;95971.34;10416534;28;2134;-88
2021/04/01 03:08:20;;;;;;;;;;;10.70;76.80;;;9.57;57.18;95971.09;10388346;28;2254;-88
2021/04/01 03:13:23;;;;;;;;;;;10.60;77.20;;;9.59;57.57;95968.94;10406169;28;1946;-87
2021/04/01 03:18:25;;;;;;;;;;;10.60;77.20;;;9.44;57.72;95961.63;10410317;28;2178;-85
2021/04/01 03:23:29;;;;;;;;;;;10.60;77.20;;;9.48;57.58;95962.75;10399923;28;2105;-89
2021/04/01 03:28:32;;;;;;;;;;;10.50;77.40;;;9.41;57.81;95964.84;10428220;28;2109;-87
2021/04/01 03:33:34;;;;;;;;;;;10.50;77.30;;;9.39;58.29;95965.09;10422754;28;1958;-86
2021/04/01 03:38:36;;;;;;;;;;;10.50;77.60;;;9.32;58.28;95964.53;10407613;28;1419;-85
2021/04/01 03:43:38;;;;;;;;;;;10.40;77.50;;;9.30;57.69;95965.88;10421995;28;1894;-88
2021/04/01 03:48:40;;;;;;;;;;;10.30;77.70;;;9.35;58.39;95966.72;10415325;28;2356;-86
2021/04/01 03:53:42;;;;;;;;;;;10.40;78.00;;;9.30;57.44;95966.69;10409614;28;2430;-89
2021/04/01 03:58:52;;;;;;;;;;;10.40;77.70;;;9.19;58.75;95960.44;10371291;28;2050;-86
2021/04/01 04:04:03;;;;;;;;;;;10.30;78.20;;;9.13;58.72;95960.66;10392341;28;1373;-86
2021/04/01 04:09:23;;;;;;;;;;;10.20;78.00;;;9.18;58.25;95949.97;10396711;28;1944;-86
2021/04/01 04:14:36;;;;;;;;;;;10.20;77.90;;;9.13;58.07;95955.31;10378494;28;2210;-85
2021/04/01 04:19:38;;;;;;;;;;;10.20;78.10;;;9.01;58.38;95950.13;10406287;28;2035;-86
2021/04/01 04:24:41;;;;;;;;;;;10.10;78.10;;;9.15;58.11;95945.13;10377920;28;1867;-86
2021/04/01 04:29:43;;;;;;;;;;;10.10;77.90;;;9.23;57.20;95944.66;10391961;28;1998;-86
2021/04/01 04:34:47;;;;;;;;;;;10.20;77.80;;;9.07;57.91;95938.38;10404131;28;2093;-84
2021/04/01 04:39:49;;;;;;;;;;;10.10;77.80;;;9.16;57.26;95942.19;10384304;28;2077;-86
2021/04/01 04:44:51;;;;;;;;;;;10.10;77.60;;;9.12;57.58;95943.78;10406223;28;1971;-86
2021/04/01 04:49:52;;;;;;;;;;;10.20;77.40;;;9.19;57.20;95949.72;10403180;28;2144;-85
2021/04/01 04:54:54;;;;;;;;;;;10.20;77.40;;;9.30;56.68;95955.13;10382149;28;1977;-85
2021/04/01 05:00:24;;;;;;;;;;;10.30;77.00;;;9.29;56.31;95954.34;10395709;28;2197;-85
2021/04/01 05:05:26;;;;;;;;;;;10.30;76.50;;;9.45;55.37;95957.88;10392421;28;2055;-86
2021/04/01 05:10:35;;;;;;;;;;;10.40;76.20;;;9.64;54.44;95955.53;10417248;28;2056;-88
2021/04/01 05:15:37;;;;;;;;;;;10.50;75.60;;;9.82;54.50;95956.97;10417178;28;2000;-86
2021/04/01 05:20:39;;;;;;;;;;;10.70;75.20;;;10.06;52.66;95952.72;10392974;28;2081;-88
2021/04/01 05:25:41;;;;;;;;;;;10.90;74.10;;;10.27;51.91;95954.38;10394035;28;2003;-86
2021/04/01 05:30:43;;;;;;;;;;;11.10;73.20;;;10.44;51.60;95954.16;10390476;28;1906;-85
2021/04/01 05:35:46;;;;;;;;;;;11.30;72.70;;;10.63;50.90;95950.94;10391251;28;1908;-87
2021/04/01 05:40:51;;;;;;;;;;;11.40;72.00;;;10.82;50.07;95944.72;10404561;28;2028;-88
2021/04/01 05:45:57;;;;;;;;;;;11.60;71.30;;;11.07;48.69;95951.97;10405614;28;2036;-85
2021/04/01 06:01:58;;;;;;;;;;;12.20;69.40;;;11.80;46.81;95964.91;10367952;28;1799;-87
2021/04/01 06:07:03;;;;;;;;;;;12.50;68.60;;;12.08;45.93;95966.13;10388164;28;2149;-87
2021/04/01 06:12:05;;;;;;;;;;;12.80;67.50;;;12.40;45.00;95967.56;10399976;28;2189;-86
2021/04/01 06:17:07;;;;;;;;;;;13.10;66.50;;;12.68;43.83;95969.53;10422480;28;2183;-86
2021/04/01 06:22:09;;;;;;;;;;;13.30;65.60;;;12.75;42.97;95968.38;10406962;28;1960;-86
2021/04/01 06:27:13;;;;;;;;;;;13.50;64.50;;;13.02;42.84;95978.69;10397724;28;2119;-87
2021/04/01 06:32:15;;;;;;;;;;;13.70;64.10;;;13.30;41.96;95977.91;10390308;28;2019;-87
2021/04/01 06:37:23;;;;;;;;;;;14.00;63.30;;;13.59;41.44;95972.44;10385307;28;2133;-85
2021/04/01 06:47:45;;;;;;;;;;;14.40;62.20;;;14.29;39.13;95972.63;10388355;28;2098;-86
2021/04/01 06:52:47;;;;;;;;;;;14.80;61.40;;;14.60;38.96;95983.03;10382233;28;2005;-86
2021/04/01 06:58:15;;;;;;;;;;;15.10;60.40;;;15.14;37.30;95974.31;10394893;28;2034;-86
2021/04/01 07:03:36;;;;;;;;;;;15.50;59.50;;;15.34;36.83;95975.06;10386363;28;2436;-88
2021/04/01 07:08:48;;;;;;;;;;;15.80;58.40;;;15.51;36.41;95967.13;10363880;28;2404;-88
2021/04/01 07:13:51;;;;;;;;;;;16.10;57.60;;;15.76;35.62;95974.00;10378041;28;2375;-85
2021/04/01 07:35:21;;;;;;;;;;;16.80;55.40;;;16.47;34.17;95977.09;10454597;28;2149;-87
2021/04/01 07:51:05;;;;;;;;;;;17.60;54.00;;;17.03;33.51;95967.69;10397878;28;2056;-86
2021/04/01 07:56:15;;;;;;;;;;;17.80;53.30;;;17.29;32.94;95971.34;10411826;28;2075;-83
2021/04/01 08:01:31;;;;;;;;;;;18.00;53.40;;;17.69;32.25;95968.69;10444679;28;2061;-84
2021/04/01 08:06:35;;;;;;;;;;;18.30;53.10;;;17.66;32.88;95972.00;10418114;28;2176;-85
2021/04/01 08:11:38;;;;;;;;;;;18.60;52.80;;;17.94;32.46;95969.91;10423657;28;2044;-84
2021/04/01 08:16:44;;;;;;;;;;;18.70;52.50;;;18.09;32.06;95968.66;10411094;28;2117;-84
2021/04/01 08:21:46;;;;;;;;;;;18.80;52.30;;;18.31;32.00;95967.72;10400302;28;2072;-84
2021/04/01 08:27:14;;;;;;;;;;;19.00;52.30;;;18.36;32.55;95960.22;10405097;28;1857;-84
2021/04/01 08:38:19;;;;;;;;;;;19.60;51.20;;;18.79;30.93;95950.50;10401737;28;1927;-88
2021/04/01 08:43:41;;;;;;;;;;;19.70;50.80;;;19.05;30.78;95954.00;10401672;28;1750;-87
2021/04/01 08:49:04;;;;;;;;;;;19.80;50.70;;;19.32;30.29;95944.63;10412239;28;2062;-86
2021/04/01 08:54:05;;;;;;;;;;;20.10;50.50;;;19.21;30.22;95939.84;10425033;28;1918;-86
2021/04/01 08:59:09;;;;;;;;;;;20.10;49.80;;;19.50;30.23;95937.19;10430808;28;2355;-87
2021/04/01 09:04:12;;;;;;;;;;;20.20;50.10;;;19.63;29.96;95924.50;10442978;28;1869;-88
2021/04/01 09:09:14;;;;;;;;;;;20.40;49.70;;;19.68;29.93;95927.06;10428960;28;1712;-86
2021/04/01 09:14:18;;;;;;;;;;;20.50;49.40;;;19.81;29.62;95919.78;10428867;28;1991;-86
2021/04/01 09:19:20;;;;;;;;;;;20.70;49.50;;;20.04;29.37;95912.09;10439490;28;1988;-88
2021/04/01 09:24:22;;;;;;;;;;;20.80;49.30;;;20.11;29.06;95910.44;10465499;28;2196;-86
2021/04/01 09:29:24;;;;;;;;;;;20.90;48.80;;;20.23;28.87;95918.72;10421509;28;1627;-88
2021/04/01 09:34:28;;;;;;;;;;;21.10;48.40;;;20.52;28.90;95908.88;10412813;28;1940;-88
2021/04/01 09:39:30;;;;;;;;;;;21.20;48.70;;;20.56;28.92;95903.56;10430940;28;1360;-88
2021/04/01 09:44:33;;;;;;;;;;;21.40;48.30;;;20.76;28.78;95910.94;10432175;28;1957;-88
2021/04/01 09:49:35;;;;;;;;;;;21.60;48.20;;;20.99;28.68;95905.88;10429126;28;1618;-88
2021/04/01 09:54:39;;;;;;;;;;;21.90;48.30;;;21.00;28.24;95912.97;10416801;28;1965;-88
2021/04/01 09:59:49;;;;;;;;;;;21.90;47.70;;;20.89;28.82;95903.59;10425148;28;1996;-89
2021/04/01 10:04:52;;;;;;;;;;;21.90;47.80;;;20.85;28.78;95908.13;10442209;28;1640;-87
2021/04/01 10:09:57;;;;;;;;;;;21.80;47.70;;;20.63;28.94;95898.38;10454470;28;1237;-87
2021/04/01 10:15:09;;;;;;;;;;;21.70;47.70;;;20.60;29.01;95890.81;10397649;28;2005;-89
2021/04/01 10:20:12;;;;;;;;;;;21.60;47.80;;;20.85;29.43;95887.06;10428820;28;1955;-87
2021/04/01 10:25:16;;;;;;;;;;;21.70;48.40;;;20.87;28.81;95878.56;10416615;28;2050;-88
2021/04/01 10:30:18;;;;;;;;;;;21.90;48.10;;;21.10;29.36;95871.53;10415742;28;1902;-87
2021/04/01 10:35:20;;;;;;;;;;;22.00;48.50;;;21.24;28.23;95863.00;10449584;28;1659;-89
2021/04/01 10:40:22;;;;;;;;;;;22.10;47.90;;;20.98;28.08;95858.63;10429217;28;2031;-87
2021/04/01 10:45:25;;;;;;;;;;;22.00;46.80;;;21.22;27.71;95844.22;10402443;28;2247;-88
2021/04/01 10:50:28;;;;;;;;;;;22.10;46.90;;;21.26;27.91;95836.16;10402785;28;1895;-86
2021/04/01 10:55:30;;;;;;;;;;;22.10;47.00;;;21.46;27.28;95835.28;10428822;28;2056;-85
2021/04/01 11:00:32;;;;;;;;;;;22.20;46.40;;;21.59;27.30;95838.81;10411623;28;1989;-86
2021/04/01 11:05:34;;;;;;;;;;;22.40;46.40;;;21.69;26.06;95824.66;10426562;28;1940;-87
2021/04/01 11:10:36;;;;;;;;;;;22.60;45.10;;;21.79;26.35;95815.19;10428804;28;2076;-88
2021/04/01 11:15:39;;;;;;;;;;;22.60;45.00;;;21.87;25.65;95817.00;10403067;28;1920;-87
2021/04/01 11:20:41;;;;;;;;;;;22.80;44.70;;;21.68;26.05;95812.13;10403876;28;1882;-87
2021/04/01 11:25:43;;;;;;;;;;;22.70;44.60;;;21.75;26.59;95803.31;10398292;28;2092;-86
2021/04/01 11:30:47;;;;;;;;;;;22.60;45.30;;;21.69;27.03;95799.22;10393727;28;2131;-86
2021/04/01 11:35:59;;;;;;;;;;;22.60;45.70;;;21.90;26.71;95788.97;10412117;28;2087;-86
2021/04/01 11:41:03;;;;;;;;;;;22.60;45.80;;;22.19;27.26;95773.38;10428223;28;1981;-86
2021/04/01 11:46:18;;;;;;;;;;;;;;;;;;;;;
2021/04/01 12:04:19;;;;;;;;;;;23.40;45.40;;;22.84;26.01;95746.56;10207525;29;2289;-85
2021/04/01 12:15:34;;;;;;;;;;;23.80;45.30;;;23.19;25.06;95738.47;9981708;29;2247;-86
2021/04/01 12:38:34;;;;;;;;;;;24.00;43.60;;;22.96;25.80;95715.56;10371034;23;2084;-86
2021/04/01 12:43:45;;;;;;;;;;;23.80;44.20;;;23.09;25.56;95698.66;10293255;28;1980;-87
2021/04/01 12:55:09;;;;;;;;;;;23.70;44.00;;;23.07;26.11;95700.97;10671422;23;2019;-86
2021/04/01 13:12:04;;;;;;;;;;;;;;;;;;;;;
2021/04/01 13:17:45;;;;;;;;;;;23.70;45.00;;;22.98;26.52;95680.38;10286189;28;1809;-88
2021/04/01 13:23:09;;;;;;;;;;;23.80;45.00;;;22.73;26.95;95668.78;10371148;28;2057;-89
2021/04/01 13:28:47;;;;;;;;;;;23.50;45.40;;;22.98;26.32;95662.00;10395795;28;1686;-90
2021/04/01 13:34:02;;;;;;;;;;;23.90;45.40;;;23.23;26.26;95650.81;10386950;28;2243;-87
2021/04/01 13:39:44;;;;;;;;;;;23.90;45.20;;;23.34;25.83;95646.31;10382477;28;1912;-89
2021/04/01 13:45:09;;;;;;;;;;;24.00;44.60;;;22.82;26.51;95650.22;10372127;28;1646;-86
2021/04/01 13:50:24;;;;;;;;;;;23.80;44.70;;;22.98;26.47;95651.03;10360579;28;1878;-89
2021/04/01 13:55:51;;;;;;;;;;;23.70;45.00;;;22.78;26.75;95635.66;10382036;28;1839;-87
2021/04/01 14:01:08;;;;;;;;;;;23.40;45.20;;;23.00;26.20;95631.47;10372856;28;1768;-86
2021/04/01 14:11:30;;;;;;;;;;;23.70;45.10;;;22.95;26.88;95635.28;10395496;28;2008;-86
2021/04/01 14:16:33;;;;;;;;;;;23.70;45.50;;;22.58;26.91;95621.84;10406915;28;1978;-86
2021/04/01 14:21:35;;;;;;;;;;;23.50;44.90;;;22.51;27.11;95613.44;10375777;28;2138;-87
2021/04/01 14:26:40;;;;;;;;;;;23.40;45.20;;;22.89;26.44;95604.59;10390435;28;1937;-87
2021/04/01 14:31:42;;;;;;;;;;;23.50;45.10;;;22.82;26.08;95609.09;10372106;28;1989;-86
2021/04/01 14:36:44;;;;;;;;;;;23.50;44.60;;;22.72;26.43;95599.50;10373566;28;1975;-85
2021/04/01 14:41:54;;;;;;;;;;;23.50;44.70;;;22.74;26.17;95593.66;10374171;28;1958;-84
2021/04/01 14:46:56;;;;;;;;;;;23.40;44.60;;;22.89;25.69;95593.63;10373611;28;2054;-84
2021/04/01 14:51:58;;;;;;;;;;;23.60;44.10;;;22.55;26.36;95592.44;10342823;28;1971;-84
2021/04/01 14:57:00;;;;;;;;;;;23.40;44.40;;;22.40;26.26;95582.28;10365263;28;1915;-85
2021/04/01 15:02:05;;;;;;;;;;;23.20;44.40;;;22.28;26.70;95580.44;10363582;28;1966;-87
2021/04/01 15:07:07;;;;;;;;;;;23.00;44.70;;;22.62;26.52;95572.63;10364301;28;2003;-86
2021/04/01 15:12:09;;;;;;;;;;;23.20;45.10;;;22.57;26.14;95570.94;10395243;28;2007;-84
2021/04/01 15:17:10;;;;;;;;;;;23.40;44.60;;;22.57;26.67;95560.00;10372214;28;2053;-85
2021/04/01 15:22:12;;;;;;;;;;;23.40;44.90;;;22.61;26.77;95560.88;10370230;28;2042;-87
2021/04/01 15:27:14;;;;;;;;;;;23.40;45.00;;;22.52;26.87;95563.03;10395199;28;1891;-85
2021/04/01 15:32:16;;;;;;;;;;;23.30;45.20;;;22.39;26.93;95556.03;10399729;28;1952;-85
2021/04/01 15:37:18;;;;;;;;;;;23.20;45.00;;;22.10;27.22;95544.38;10374380;28;2015;-87
2021/04/01 15:42:20;;;;;;;;;;;23.00;45.10;;;21.88;27.54;95544.94;10387211;28;2006;-86
2021/04/01 15:47:22;;;;;;;;;;;22.80;45.60;;;21.79;27.56;95544.31;10391655;28;1891;-84
2021/04/01 15:52:25;;;;;;;;;;;22.60;45.70;;;22.03;27.41;95535.97;10355529;28;2040;-86
2021/04/01 15:57:27;;;;;;;;;;;22.70;46.00;;;21.99;27.54;95528.81;10351059;28;1989;-87
2021/04/01 16:02:29;;;;;;;;;;;22.80;45.90;;;21.96;27.78;95538.53;10344143;28;1948;-86
2021/04/01 16:07:32;;;;;;;;;;;22.80;46.10;;;21.59;28.63;95555.13;10362977;28;1930;-86
2021/04/01 16:12:34;;;;;;;;;;;22.60;46.30;;;20.78;31.89;95594.53;10354612;28;2087;-85
2021/04/01 16:17:37;;;;;;;;;;;22.10;48.80;;;19.27;38.23;95606.88;10365748;28;2370;-83
2021/04/01 16:22:38;;;;;;;;;;;20.80;54.30;;;17.43;48.54;95622.63;10375618;28;2010;-85
2021/04/01 16:27:40;;;;;;;;;;;19.20;63.20;;;16.27;57.20;95619.53;10378592;28;2105;-87
2021/04/01 16:32:42;;;;;;;;;;;18.10;71.50;;;14.95;63.68;95624.41;10384198;28;1997;-85
2021/04/01 16:37:44;;;;;;;;;;;16.60;78.40;;;14.56;66.31;95628.47;10369604;28;2134;-85
2021/04/01 16:42:46;;;;;;;;;;;15.80;83.20;;;14.49;67.45;95632.69;10381845;28;1866;-89
2021/04/01 16:47:48;;;;;;;;;;;17.50;87.10;;;14.46;68.50;95641.38;10361686;28;1924;-86
2021/04/01 16:52:52;;;;;;;;;;;15.40;87.00;;;14.64;63.33;95618.06;10389126;28;1926;-86
2021/04/01 16:57:56;;;;;;;;;;;15.50;84.20;;;14.63;65.00;95616.44;10355417;28;1943;-86
2021/04/01 17:02:59;;;;;;;;;;;15.60;84.60;;;14.75;62.87;95616.72;10379186;28;1753;-89
2021/04/01 17:08:04;;;;;;;;;;;15.60;83.40;;;14.78;64.34;95608.81;10372488;28;2038;-88
2021/04/01 17:13:06;;;;;;;;;;;15.70;83.70;;;14.92;63.86;95603.34;10362775;28;2021;-89
2021/04/01 17:18:08;;;;;;;;;;;15.80;83.10;;;14.96;62.04;95603.56;10370726;28;1958;-86
2021/04/01 17:23:11;;;;;;;;;;;15.90;83.00;;;15.05;60.75;95612.53;10381130;28;1987;-87
2021/04/01 17:28:16;;;;;;;;;;;16.00;81.80;;;14.93;60.53;95621.19;10366028;28;1978;-88
2021/04/01 17:33:22;;;;;;;;;;;15.90;81.60;;;14.86;64.34;95637.03;10394154;28;1908;-86
2021/04/01 17:38:27;;;;;;;;;;;15.90;84.50;;;14.93;65.24;95656.38;10363102;28;2105;-88
2021/04/01 17:43:37;;;;;;;;;;;15.90;85.60;;;15.08;61.91;95653.34;10366540;28;2051;-87
2021/04/01 17:48:42;;;;;;;;;;;15.90;84.00;;;15.19;61.35;95663.94;10366533;28;2069;-88
2021/04/01 17:53:45;;;;;;;;;;;16.00;82.70;;;15.20;62.54;95674.44;10373152;28;2068;-88
2021/04/01 17:58:49;;;;;;;;;;;16.10;83.20;;;15.13;60.42;95679.47;10365598;28;2392;-88
2021/04/01 18:04:17;;;;;;;;;;;16.10;81.80;;;15.24;59.87;95690.91;10382209;28;1852;-87
2021/04/01 18:25:43;;;;;;;;;;;16.00;83.00;;;14.82;62.80;95718.06;10394640;28;1941;-88
2021/04/01 18:30:47;;;;;;;;;;;15.90;83.90;;;14.60;63.47;95721.44;10398097;28;2041;-86
2021/04/01 18:35:53;;;;;;;;;;;15.70;84.70;;;14.47;62.69;95727.66;10389138;28;1655;-88
2021/04/01 18:40:58;;;;;;;;;;;15.40;84.10;;;14.41;63.87;95731.50;10378075;28;1991;-84
2021/04/01 18:46:02;;;;;;;;;;;15.40;84.70;;;14.33;63.13;95726.81;10363289;28;1543;-87
2021/04/01 18:51:09;;;;;;;;;;;15.30;85.00;;;14.09;64.50;95726.16;10375257;28;1973;-85
2021/04/01 18:56:13;;;;;;;;;;;15.20;85.90;;;13.85;65.66;95713.56;10388746;28;1719;-87
2021/04/01 19:01:27;;;;;;;;;;;14.90;87.00;;;13.69;66.06;95725.72;10371355;28;1269;-86
2021/04/01 19:06:31;;;;;;;;;;;14.70;87.60;;;13.53;65.80;95725.94;10360476;28;1317;-86
2021/04/01 19:12:12;;;;;;;;;;;14.60;87.70;;;13.42;66.01;95719.09;10367994;28;1891;-85
2021/04/01 19:22:35;;;;;;;;;;;14.30;88.40;;;13.20;66.15;95743.13;10351357;28;1581;-85
2021/04/01 19:27:37;;;;;;;;;;;14.20;88.30;;;13.13;65.55;95727.31;10359513;28;1261;-85
2021/04/01 19:32:39;;;;;;;;;;;14.20;87.80;;;13.17;64.94;95732.94;10365512;28;1910;-87
2021/04/01 19:37:41;;;;;;;;;;;14.10;87.10;;;13.09;64.08;95736.25;10367190;28;1229;-86
2021/04/01 19:42:43;;;;;;;;;;;14.00;86.40;;;13.04;64.36;95728.22;10377244;28;1367;-90
2021/04/01 19:47:45;;;;;;;;;;;14.00;86.10;;;13.03;63.90;95726.63;10353700;28;1572;-87
2021/04/01 19:52:48;;;;;;;;;;;14.10;86.00;;;12.96;63.50;95727.78;10378357;28;1918;-90
2021/04/01 19:57:50;;;;;;;;;;;13.90;85.90;;;12.93;63.49;95728.38;10346704;28;1601;-86
2021/04/01 20:02:52;;;;;;;;;;;13.90;86.00;;;12.82;64.68;95720.69;10348011;28;1367;-88
2021/04/01 20:07:54;;;;;;;;;;;13.80;86.20;;;12.76;64.02;95716.44;10380537;28;1510;-87
2021/04/01 20:12:56;;;;;;;;;;;13.80;86.40;;;12.79;64.13;95718.56;10357860;28;1965;-87
2021/04/01 20:17:58;;;;;;;;;;;13.80;86.30;;;12.78;63.36;95712.38;10393438;28;1134;-87
2021/04/01 20:23:00;;;;;;;;;;;13.70;86.30;;;12.70;63.79;95710.31;10359525;28;1590;-87
2021/04/01 20:28:03;;;;;;;;;;;13.70;86.20;;;12.77;64.34;95708.06;10381871;28;1606;-86
2021/04/01 20:33:05;;;;;;;;;;;13.70;86.60;;;12.76;64.49;95706.47;10388362;28;2036;-85
2021/04/01 20:38:07;;;;;;;;;;;13.70;86.70;;;12.63;65.02;95712.56;10364429;28;1266;-85
2021/04/01 20:43:09;;;;;;;;;;;13.70;87.00;;;12.68;64.67;95715.19;10373087;28;1584;-86
2021/04/01 20:48:12;;;;;;;;;;;13.70;87.30;;;12.56;65.30;95714.81;10374482;28;1265;-85
2021/04/01 20:53:14;;;;;;;;;;;13.60;87.60;;;12.53;66.37;95713.47;10380770;28;1954;-86
2021/04/01 20:58:19;;;;;;;;;;;13.50;88.60;;;12.36;67.37;95705.03;10377818;28;1442;-85
2021/04/01 21:03:21;;;;;;;;;;;13.50;89.50;;;12.29;67.70;95713.47;10399498;28;1989;-85
2021/04/01 21:08:23;;;;;;;;;;;13.40;89.90;;;12.20;68.12;95717.88;10366887;28;1553;-85
2021/04/01 21:13:25;;;;;;;;;;;13.30;90.30;;;12.18;68.03;95717.34;10376867;28;1990;-86
2021/04/01 21:18:27;;;;;;;;;;;13.20;90.70;;;12.16;68.27;95719.53;10365573;28;1622;-85
2021/04/01 21:23:29;;;;;;;;;;;13.20;90.90;;;12.14;68.11;95719.00;10366458;28;2049;-85
2021/04/01 21:28:33;;;;;;;;;;;13.20;91.10;;;12.24;67.79;95715.41;10366133;28;1923;-86
2021/04/01 21:33:36;;;;;;;;;;;13.20;91.30;;;12.33;67.91;95719.88;10351297;28;1886;-87
2021/04/01 21:38:40;;;;;;;;;;;13.30;91.30;;;12.34;67.39;95701.81;10347516;28;1874;-86
2021/04/01 21:43:42;;;;;;;;;;;13.30;91.00;;;12.31;67.00;95710.50;10346244;28;1860;-85
2021/04/01 21:48:47;;;;;;;;;;;13.30;90.90;;;12.26;67.25;95711.34;10364516;28;1161;-85
2021/04/01 21:53:49;;;;;;;;;;;13.30;90.90;;;12.14;67.88;95719.81;10373764;28;1906;-83
2021/04/01 21:58:50;;;;;;;;;;;13.20;91.00;;;12.08;67.70;95717.44;10351369;28;1146;-86
2021/04/01 22:03:52;;;;;;;;;;;13.10;91.30;;;12.13;67.82;95720.91;10361271;28;1597;-87
2021/04/01 22:08:54;;;;;;;;;;;13.10;91.30;;;12.04;67.66;95716.41;10363002;28;1584;-83
2021/04/01 22:13:56;;;;;;;;;;;13.00;91.20;;;12.08;67.72;95718.25;10355473;28;1918;-84
2021/04/01 22:18:57;;;;;;;;;;;13.80;91.90;;;12.08;68.29;95703.97;10357831;28;2007;-82
2021/04/01 22:24:00;;;;;;;;;;;13.00;91.40;;;12.08;67.81;95706.66;10373105;28;1886;-85
2021/04/01 22:29:05;;;;;;;;;;;13.00;91.30;;;12.04;67.68;95701.06;10343827;28;1677;-85
2021/04/01 22:34:09;;;;;;;;;;;13.00;91.50;;;11.95;68.18;95702.75;10342908;28;1906;-87
2021/04/01 22:39:12;;;;;;;;;;;13.00;91.70;;;11.82;68.98;95698.81;10361973;28;1709;-87
2021/04/01 22:44:14;;;;;;;;;;;12.90;92.00;;;11.75;69.10;95692.13;10381782;28;1836;-85
2021/04/01 22:49:15;;;;;;;;;;;12.80;92.40;;;11.71;69.13;95685.72;10356781;28;1929;-87
2021/04/01 22:54:17;;;;;;;;;;;12.70;93.00;;;11.61;70.12;95687.41;10369827;28;1958;-85
2021/04/01 22:59:19;;;;;;;;;;;12.70;93.20;;;11.49;70.27;95695.03;10360019;28;1970;-87
2021/04/01 23:04:21;;;;;;;;;;;12.60;93.30;;;11.53;69.75;95684.50;10364375;28;1991;-87
2021/04/01 23:09:23;;;;;;;;;;;12.50;93.80;;;11.48;69.81;95681.84;10347542;28;1776;-85
2021/04/01 23:14:25;;;;;;;;;;;12.50;93.50;;;11.50;69.38;95671.59;10352489;28;2058;-87
2021/04/01 23:19:27;;;;;;;;;;;12.50;93.90;;;11.46;70.21;95678.66;10350522;28;1919;-86
2021/04/01 23:24:29;;;;;;;;;;;12.50;93.90;;;11.38;70.11;95686.22;10355921;28;1916;-87
2021/04/01 23:29:31;;;;;;;;;;;12.40;94.20;;;11.27;70.59;95687.41;10368102;28;2007;-87
2021/04/01 23:34:33;;;;;;;;;;;12.40;94.20;;;11.27;70.84;95676.63;10357120;28;1914;-86
2021/04/01 23:39:35;;;;;;;;;;;12.30;94.70;;;11.18;71.23;95683.66;10369045;28;1978;-87
2021/04/01 23:44:36;;;;;;;;;;;12.30;94.70;;;11.19;70.84;95677.19;10385560;28;1631;-84
2021/04/01 23:49:38;;;;;;;;;;;12.30;95.00;;;11.06;71.48;95693.97;10389328;28;1680;-86
2021/04/01 23:54:40;;;;;;;;;;;12.20;95.20;;;11.01;72.23;95688.66;10383593;28;1951;-86
2021/04/01 23:59:42;;;;;;;;;;;12.10;96.00;;;10.90;72.87;95687.09;10378264;28;1915;-86
